createdAt,value
2018-06-16T00:00:17.092Z,19.97
2018-06-16T00:02:46.253Z,19.96
2018-06-16T00:05:15.429Z,19.99
2018-06-16T00:07:44.648Z,20.00
2018-06-16T00:10:28.051Z,19.98
2018-06-16T00:12:58.913Z,19.89
2018-06-16T00:15:28.105Z,19.83
2018-06-16T00:17:57.318Z,19.83
2018-06-16T00:20:26.517Z,19.81
2018-06-16T00:22:55.674Z,19.87
2018-06-16T00:25:24.910Z,19.85
2018-06-16T00:27:54.051Z,19.81
2018-06-16T00:30:23.188Z,19.71
2018-06-16T00:32:52.381Z,19.63
2018-06-16T00:35:21.501Z,19.61
2018-06-16T00:37:50.602Z,19.71
2018-06-16T00:40:20.201Z,19.77
2018-06-16T00:42:49.415Z,19.73
2018-06-16T00:45:18.938Z,19.74
2018-06-16T00:47:48.098Z,19.67
2018-06-16T00:50:17.206Z,19.61
2018-06-16T00:52:46.307Z,19.57
2018-06-16T00:55:15.475Z,19.58
2018-06-16T00:57:48.995Z,19.52
2018-06-16T01:00:19.591Z,19.56
2018-06-16T01:02:49.104Z,19.52
2018-06-16T01:05:18.300Z,19.48
2018-06-16T01:07:48.350Z,19.53
2018-06-16T01:10:17.446Z,19.50
2018-06-16T01:12:46.652Z,19.49
2018-06-16T01:15:15.739Z,19.44
2018-06-16T01:17:44.904Z,19.39
2018-06-16T01:20:14.221Z,19.36
2018-06-16T01:22:43.327Z,19.35
2018-06-16T01:25:12.441Z,19.34
2018-06-16T01:27:41.625Z,19.32
2018-06-16T01:30:10.794Z,19.26
2018-06-16T01:32:39.910Z,19.23
2018-06-16T01:35:09.035Z,19.24
2018-06-16T01:37:38.171Z,19.27
2018-06-16T01:40:07.305Z,19.34
2018-06-16T01:42:36.488Z,19.36
2018-06-16T01:45:05.681Z,19.38
2018-06-16T01:47:34.978Z,19.33
2018-06-16T01:50:04.092Z,19.25
2018-06-16T01:52:33.494Z,19.24
2018-06-16T01:55:02.915Z,19.19
2018-06-16T01:57:32.091Z,19.11
2018-06-16T02:00:01.342Z,19.11
2018-06-16T02:02:30.475Z,19.12
2018-06-16T02:04:59.699Z,19.09
2018-06-16T02:07:28.975Z,19.03
2018-06-16T02:09:58.142Z,19.05
2018-06-16T02:12:27.282Z,19.00
2018-06-16T02:14:56.377Z,19.00
2018-06-16T02:17:25.501Z,18.90
2018-06-16T02:19:54.897Z,18.81
2018-06-16T02:22:24.053Z,18.84
2018-06-16T02:24:53.273Z,18.80
2018-06-16T02:27:22.393Z,18.83
2018-06-16T02:29:51.514Z,18.79
2018-06-16T02:32:20.642Z,18.76
2018-06-16T02:34:49.969Z,18.75
2018-06-16T02:37:19.167Z,18.79
2018-06-16T02:39:48.297Z,18.81
2018-06-16T02:42:17.502Z,18.84
2018-06-16T02:44:46.634Z,18.81
2018-06-16T02:47:15.880Z,18.77
2018-06-16T02:49:45.062Z,18.74
2018-06-16T02:52:14.280Z,18.80
2018-06-16T02:54:43.866Z,18.83
2018-06-16T02:57:12.997Z,18.80
2018-06-16T02:59:42.256Z,18.79
2018-06-16T03:02:11.379Z,18.80
2018-06-16T03:04:40.494Z,18.89
2018-06-16T03:07:09.644Z,18.88
2018-06-16T03:09:39.658Z,18.87
2018-06-16T03:12:09.082Z,18.75
2018-06-16T03:14:38.200Z,18.73
2018-06-16T03:17:07.327Z,18.81
2018-06-16T03:19:36.457Z,18.81
2018-06-16T03:22:06.404Z,18.79
2018-06-16T03:24:36.150Z,18.78
2018-06-16T03:27:05.421Z,18.78
2018-06-16T03:29:34.516Z,18.82
2018-06-16T03:32:03.645Z,18.79
2018-06-16T03:34:32.907Z,18.80
2018-06-16T03:37:02.037Z,18.82
2018-06-16T03:39:31.257Z,18.79
2018-06-16T03:42:00.378Z,18.70
2018-06-16T03:44:29.530Z,18.69
2018-06-16T03:46:58.662Z,18.69
2018-06-16T03:49:27.918Z,18.65
2018-06-16T03:51:57.065Z,18.67
2018-06-16T03:54:26.136Z,18.71
2018-06-16T03:56:55.378Z,18.72
2018-06-16T03:59:24.509Z,18.67
2018-06-16T04:01:53.703Z,18.66
2018-06-16T04:04:22.801Z,18.68
2018-06-16T04:06:51.883Z,18.68
2018-06-16T04:09:21.017Z,18.66
2018-06-16T04:11:50.096Z,18.64
2018-06-16T04:14:19.614Z,18.58
2018-06-16T04:16:48.814Z,18.59
2018-06-16T04:19:17.990Z,18.65
2018-06-16T04:21:47.174Z,18.72
2018-06-16T04:24:16.276Z,18.72
2018-06-16T04:26:45.548Z,18.75
2018-06-16T04:29:14.767Z,18.71
2018-06-16T04:31:43.937Z,18.70
2018-06-16T04:34:13.102Z,18.69
2018-06-16T04:36:42.214Z,18.63
2018-06-16T04:39:11.392Z,18.62
2018-06-16T04:41:40.489Z,18.68
2018-06-16T04:44:09.592Z,18.84
2018-06-16T04:46:38.686Z,18.88
2018-06-16T04:49:08.185Z,18.87
2018-06-16T04:51:37.319Z,18.85
2018-06-16T04:54:06.458Z,18.86
2018-06-16T04:56:35.590Z,18.92
2018-06-16T04:59:04.742Z,18.90
2018-06-16T05:01:34.671Z,18.81
2018-06-16T05:04:03.889Z,18.84
2018-06-16T05:06:33.023Z,18.74
2018-06-16T05:09:02.807Z,18.76
2018-06-16T05:11:31.973Z,18.86
2018-06-16T05:14:01.414Z,18.98
2018-06-16T05:16:30.638Z,19.14
2018-06-16T05:19:00.090Z,19.25
2018-06-16T05:21:29.234Z,19.28
2018-06-16T05:23:58.366Z,19.32
2018-06-16T05:26:27.606Z,19.37
2018-06-16T05:28:56.692Z,19.43
2018-06-16T05:31:25.861Z,19.45
2018-06-16T05:33:55.421Z,19.49
2018-06-16T05:36:24.556Z,19.56
2018-06-16T05:38:53.743Z,19.61
2018-06-16T05:41:22.948Z,19.68
2018-06-16T05:43:52.074Z,19.60
2018-06-16T05:46:21.217Z,19.61
2018-06-16T05:48:50.430Z,19.66
2018-06-16T05:51:19.469Z,19.73
2018-06-16T05:53:48.702Z,19.77
2018-06-16T05:56:17.761Z,19.88
2018-06-16T05:58:46.916Z,19.90
2018-06-16T06:01:16.546Z,19.91
2018-06-16T06:03:45.659Z,19.93
2018-06-16T06:06:14.757Z,19.97
2018-06-16T06:08:43.876Z,20.00
2018-06-16T06:11:12.974Z,20.03
2018-06-16T06:13:42.094Z,20.01
2018-06-16T06:16:11.578Z,20.04
2018-06-16T06:18:40.719Z,20.10
2018-06-16T06:21:09.834Z,20.19
2018-06-16T06:23:40.959Z,20.26
2018-06-16T06:26:10.176Z,20.28
2018-06-16T06:28:39.281Z,20.22
2018-06-16T06:31:08.402Z,20.29
2018-06-16T06:33:37.597Z,20.33
2018-06-16T06:36:06.793Z,20.39
2018-06-16T06:38:35.964Z,20.49
2018-06-16T06:41:05.070Z,20.50
2018-06-16T06:43:34.255Z,20.53
2018-06-16T06:46:03.346Z,20.54
2018-06-16T06:48:32.520Z,20.42
2018-06-16T06:51:01.654Z,20.53
2018-06-16T06:53:30.972Z,20.69
2018-06-16T06:56:00.317Z,20.81
2018-06-16T06:58:29.469Z,20.83
2018-06-16T07:00:58.643Z,20.69
2018-06-16T07:03:27.891Z,21.00
2018-06-16T07:05:57.577Z,21.13
2018-06-16T07:08:27.595Z,21.23
2018-06-16T07:10:56.729Z,21.35
2018-06-16T07:13:25.756Z,21.44
2018-06-16T07:15:54.908Z,21.49
2018-06-16T07:18:24.671Z,21.66
2018-06-16T07:20:54.023Z,21.84
2018-06-16T07:23:23.689Z,22.02
2018-06-16T07:25:53.671Z,22.05
2018-06-16T07:28:22.864Z,22.03
2018-06-16T07:30:52.069Z,22.08
2018-06-16T07:33:21.279Z,22.17
2018-06-16T07:35:50.671Z,22.27
2018-06-16T07:38:19.767Z,22.38
2018-06-16T07:40:49.081Z,22.54
2018-06-16T07:43:18.392Z,22.61
2018-06-16T07:45:47.506Z,22.67
2018-06-16T07:48:16.893Z,22.71
2018-06-16T07:50:45.988Z,22.68
2018-06-16T07:53:15.493Z,22.80
2018-06-16T07:55:44.966Z,22.89
2018-06-16T07:58:14.199Z,22.95
2018-06-16T08:00:43.761Z,22.96
2018-06-16T08:03:12.865Z,22.90
2018-06-16T08:05:42.491Z,22.95
2018-06-16T08:08:11.746Z,23.14
2018-06-16T08:10:40.789Z,23.12
2018-06-16T08:13:09.995Z,23.15
2018-06-16T08:15:39.162Z,23.21
2018-06-16T08:18:08.429Z,23.30
2018-06-16T08:20:37.501Z,23.35
2018-06-16T08:23:06.596Z,23.54
2018-06-16T08:25:35.875Z,23.72
2018-06-16T08:28:05.204Z,23.86
2018-06-16T08:30:34.401Z,23.90
2018-06-16T08:33:04.094Z,24.02
2018-06-16T08:35:33.355Z,24.04
2018-06-16T08:38:04.325Z,24.10
2018-06-16T08:40:33.565Z,24.06
2018-06-16T08:43:03.327Z,24.15
2018-06-16T08:45:32.676Z,24.05
2018-06-16T08:48:02.630Z,24.16
2018-06-16T08:50:32.053Z,24.27
2018-06-16T08:53:01.505Z,24.41
2018-06-16T08:55:31.151Z,24.57
2018-06-16T08:58:00.434Z,24.61
2018-06-16T09:00:31.105Z,24.67
2018-06-16T09:03:00.342Z,24.54
2018-06-16T09:05:29.861Z,24.57
2018-06-16T09:07:59.010Z,24.72
2018-06-16T09:10:28.299Z,24.92
2018-06-16T09:12:57.474Z,24.99
2018-06-16T09:15:26.670Z,24.47
2018-06-16T09:17:55.899Z,24.69
2018-06-16T09:20:25.045Z,25.01
2018-06-16T09:22:54.308Z,25.35
2018-06-16T09:25:24.061Z,25.48
2018-06-16T09:27:53.452Z,25.47
2018-06-16T09:30:22.609Z,25.48
2018-06-16T09:32:52.318Z,25.43
2018-06-16T09:35:21.561Z,25.45
2018-06-16T09:37:51.096Z,25.47
2018-06-16T09:40:20.177Z,25.47
2018-06-16T09:42:49.377Z,25.48
2018-06-16T09:45:18.506Z,25.38
2018-06-16T09:47:47.670Z,25.58
2018-06-16T09:50:16.777Z,25.68
2018-06-16T09:52:45.969Z,25.53
2018-06-16T09:55:15.540Z,25.65
2018-06-16T09:57:45.510Z,25.83
2018-06-16T10:00:19.842Z,25.99
2018-06-16T10:02:48.971Z,25.93
2018-06-16T10:05:18.188Z,25.94
2018-06-16T10:07:47.427Z,26.16
2018-06-16T10:10:16.768Z,26.08
2018-06-16T10:12:45.905Z,25.72
2018-06-16T10:15:15.075Z,26.17
2018-06-16T10:17:45.095Z,26.25
2018-06-16T10:20:14.306Z,26.11
2018-06-16T10:22:50.065Z,26.04
2018-06-16T10:25:19.283Z,26.06
2018-06-16T10:27:48.481Z,26.16
2018-06-16T10:30:23.772Z,26.35
2018-06-16T10:32:52.986Z,26.52
2018-06-16T10:35:23.167Z,26.60
2018-06-16T10:37:52.658Z,26.66
2018-06-16T10:40:27.984Z,26.78
2018-06-16T10:42:58.456Z,26.86
2018-06-16T10:45:28.893Z,26.68
2018-06-16T10:47:58.626Z,26.37
2018-06-16T10:50:27.893Z,26.57
2018-06-16T10:52:57.158Z,26.84
2018-06-16T10:55:28.835Z,27.05
2018-06-16T10:57:58.007Z,27.34
2018-06-16T11:00:28.855Z,27.56
2018-06-16T11:02:57.995Z,27.67
2018-06-16T11:05:27.202Z,27.75
2018-06-16T11:07:56.849Z,27.78
2018-06-16T11:10:26.272Z,27.91
2018-06-16T11:12:56.491Z,27.91
2018-06-16T11:15:26.226Z,27.71
2018-06-16T11:17:55.947Z,27.07
2018-06-16T11:20:25.189Z,27.05
2018-06-16T11:22:54.723Z,27.39
2018-06-16T11:25:24.039Z,27.58
2018-06-16T11:27:53.663Z,27.36
2018-06-16T11:30:23.164Z,27.37
2018-06-16T11:32:52.579Z,27.71
2018-06-16T11:35:21.864Z,27.87
2018-06-16T11:37:51.370Z,27.92
2018-06-16T11:40:20.476Z,27.98
2018-06-16T11:42:50.604Z,28.05
2018-06-16T11:45:20.639Z,28.19
2018-06-16T11:47:50.546Z,28.16
2018-06-16T11:50:19.773Z,27.86
2018-06-16T11:52:49.098Z,27.52
2018-06-16T11:55:18.308Z,27.45
2018-06-16T11:57:47.413Z,27.56
2018-06-16T12:00:16.513Z,27.57
2018-06-16T12:02:45.721Z,27.31
2018-06-16T12:05:14.904Z,27.40
2018-06-16T12:07:44.723Z,27.56
2018-06-16T12:10:14.039Z,27.59
2018-06-16T12:12:43.139Z,27.52
2018-06-16T12:15:13.388Z,27.44
2018-06-16T12:17:42.518Z,27.46
2018-06-16T12:20:12.503Z,27.60
2018-06-16T12:22:41.735Z,27.52
2018-06-16T12:25:11.667Z,26.85
2018-06-16T12:27:40.755Z,27.60
2018-06-16T12:30:12.187Z,27.51
2018-06-16T12:32:41.306Z,27.71
2018-06-16T12:35:11.542Z,27.87
2018-06-16T12:37:40.738Z,28.14
2018-06-16T12:40:09.924Z,27.77
2018-06-16T12:42:39.824Z,28.09
2018-06-16T12:45:09.574Z,28.50
2018-06-16T12:47:39.549Z,28.37
2018-06-16T12:50:09.786Z,28.48
2018-06-16T12:52:39.069Z,28.57
2018-06-16T12:55:08.366Z,28.69
2018-06-16T12:57:38.371Z,28.68
2018-06-16T13:00:08.203Z,28.50
2018-06-16T13:02:37.569Z,28.85
2018-06-16T13:05:08.436Z,29.13
2018-06-16T13:07:37.809Z,29.09
2018-06-16T13:10:06.960Z,29.06
2018-06-16T13:12:36.246Z,29.09
2018-06-16T13:15:06.653Z,29.50
2018-06-16T13:17:37.380Z,29.91
2018-06-16T13:20:06.586Z,29.81
2018-06-16T13:22:35.878Z,29.55
2018-06-16T13:25:06.055Z,29.35
2018-06-16T13:27:35.382Z,29.43
2018-06-16T13:30:04.541Z,29.49
2018-06-16T13:32:35.134Z,29.30
2018-06-16T13:35:04.324Z,28.80
2018-06-16T13:37:33.431Z,28.85
2018-06-16T13:40:02.553Z,28.91
2018-06-16T13:42:31.745Z,29.28
2018-06-16T13:45:02.464Z,29.56
2018-06-16T13:47:31.644Z,29.83
2018-06-16T13:50:00.901Z,30.26
2018-06-16T13:52:30.470Z,30.60
2018-06-16T13:54:59.758Z,29.83
2018-06-16T13:57:29.405Z,30.69
2018-06-16T13:59:58.574Z,30.52
2018-06-16T14:02:28.121Z,30.34
2018-06-16T14:04:58.190Z,30.53
2018-06-16T14:07:27.385Z,30.22
2018-06-16T14:09:57.597Z,30.14
2018-06-16T14:12:26.818Z,30.55
2018-06-16T14:14:56.428Z,30.90
2018-06-16T14:17:25.623Z,30.66
2018-06-16T14:19:58.075Z,30.38
2018-06-16T14:22:29.053Z,30.51
2018-06-16T14:24:58.442Z,30.78
2018-06-16T14:27:28.966Z,30.82
2018-06-16T14:29:59.268Z,31.06
2018-06-16T14:32:29.311Z,31.75
2018-06-16T14:34:58.693Z,31.85
2018-06-16T14:37:28.014Z,31.58
2018-06-16T14:39:57.093Z,30.94
2018-06-16T14:42:26.296Z,31.24
2018-06-16T14:44:55.802Z,31.72
2018-06-16T14:47:25.143Z,31.89
2018-06-16T14:49:55.006Z,32.21
2018-06-16T14:52:24.212Z,32.44
2018-06-16T14:54:53.501Z,32.41
2018-06-16T14:57:22.710Z,33.02
2018-06-16T14:59:51.854Z,33.23
2018-06-16T15:02:21.098Z,33.53
2018-06-16T15:04:50.607Z,33.35
2018-06-16T15:07:20.107Z,33.42
2018-06-16T15:09:50.324Z,33.75
2018-06-16T15:12:19.769Z,33.74
2018-06-16T15:14:49.654Z,33.04
2018-06-16T15:17:18.867Z,32.93
2018-06-16T15:19:48.459Z,32.77
2018-06-16T15:22:17.667Z,32.53
2018-06-16T15:24:46.858Z,32.77
2018-06-16T15:27:16.263Z,33.05
2018-06-16T15:29:45.657Z,33.47
2018-06-16T15:32:14.788Z,33.98
2018-06-16T15:34:43.975Z,34.41
2018-06-16T15:37:13.453Z,34.38
2018-06-16T15:39:42.573Z,34.16
2018-06-16T15:42:11.927Z,34.35
2018-06-16T15:44:41.055Z,34.42
2018-06-16T15:47:10.654Z,34.66
2018-06-16T15:49:39.863Z,34.94
2018-06-16T15:52:09.002Z,34.68
2018-06-16T15:54:38.163Z,34.91
2018-06-16T15:57:07.320Z,35.22
2018-06-16T15:59:36.955Z,35.43
2018-06-16T16:02:06.452Z,35.24
2018-06-16T16:04:35.597Z,35.27
2018-06-16T16:07:05.777Z,35.40
2018-06-16T16:09:34.941Z,35.49
2018-06-16T16:12:05.303Z,35.78
2018-06-16T16:14:34.493Z,35.86
2018-06-16T16:17:04.211Z,35.84
2018-06-16T16:19:33.431Z,36.11
2018-06-16T16:22:02.696Z,36.41
2018-06-16T16:24:31.825Z,36.44
2018-06-16T16:27:01.086Z,35.74
2018-06-16T16:29:30.289Z,36.11
2018-06-16T16:31:59.567Z,34.77
2018-06-16T16:34:28.812Z,35.53
2018-06-16T16:36:58.472Z,35.98
2018-06-16T16:39:27.702Z,35.94
2018-06-16T16:41:56.997Z,35.80
2018-06-16T16:44:26.343Z,35.98
2018-06-16T16:46:55.598Z,36.12
2018-06-16T16:49:24.797Z,35.38
2018-06-16T16:51:54.874Z,35.78
2018-06-16T16:54:24.016Z,35.81
2018-06-16T16:56:53.693Z,35.22
2018-06-16T16:59:22.804Z,35.35
2018-06-16T17:01:52.196Z,35.75
2018-06-16T17:04:21.430Z,35.61
2018-06-16T17:06:50.590Z,35.36
2018-06-16T17:09:19.741Z,35.52
2018-06-16T17:11:48.877Z,34.84
2018-06-16T17:14:18.153Z,34.25
2018-06-16T17:16:47.328Z,33.37
2018-06-16T17:19:16.621Z,32.61
2018-06-16T17:21:45.716Z,32.49
2018-06-16T17:24:14.958Z,32.59
2018-06-16T17:26:44.102Z,32.05
2018-06-16T17:29:14.531Z,29.71
2018-06-16T17:31:43.823Z,31.58
2018-06-16T17:34:13.098Z,31.30
2018-06-16T17:36:42.320Z,31.14
2018-06-16T17:39:11.783Z,30.90
2018-06-16T17:41:41.535Z,30.73
2018-06-16T17:44:10.748Z,30.42
2018-06-16T17:46:40.034Z,30.35
2018-06-16T17:49:09.347Z,30.33
2018-06-16T17:51:38.523Z,30.36
2018-06-16T17:54:07.896Z,30.27
2018-06-16T17:56:37.045Z,30.18
2018-06-16T17:59:06.469Z,30.20
2018-06-16T18:01:35.619Z,29.97
2018-06-16T18:04:04.878Z,29.93
2018-06-16T18:06:34.359Z,29.98
2018-06-16T18:09:05.203Z,29.84
2018-06-16T18:11:34.409Z,29.71
2018-06-16T18:14:03.533Z,29.72
2018-06-16T18:16:32.772Z,29.60
2018-06-16T18:19:02.199Z,29.34
2018-06-16T18:21:31.389Z,29.40
2018-06-16T18:24:00.557Z,29.54
2018-06-16T18:26:30.334Z,29.49
2018-06-16T18:28:59.469Z,29.27
2018-06-16T18:31:28.682Z,29.26
2018-06-16T18:33:58.776Z,29.13
2018-06-16T18:36:27.991Z,29.03
2018-06-16T18:38:57.201Z,29.00
2018-06-16T18:41:26.397Z,28.91
2018-06-16T18:43:55.918Z,28.84
2018-06-16T18:46:25.045Z,28.81
2018-06-16T18:48:54.241Z,28.69
2018-06-16T18:51:23.491Z,28.71
2018-06-16T18:53:52.645Z,28.50
2018-06-16T18:56:21.945Z,28.15
2018-06-16T18:58:51.069Z,28.10
2018-06-16T19:01:20.218Z,27.93
2018-06-16T19:03:49.301Z,27.83
2018-06-16T19:06:18.582Z,27.87
2018-06-16T19:08:47.681Z,28.00
2018-06-16T19:11:16.818Z,28.05
2018-06-16T19:13:45.962Z,27.88
2018-06-16T19:16:15.220Z,27.86
2018-06-16T19:18:44.390Z,27.72
2018-06-16T19:21:13.464Z,27.52
2018-06-16T19:23:42.634Z,27.45
2018-06-16T19:26:12.149Z,27.29
2018-06-16T19:28:41.477Z,27.16
2018-06-16T19:31:10.644Z,27.01
2018-06-16T19:33:39.824Z,26.91
2018-06-16T19:36:08.950Z,26.80
2018-06-16T19:38:38.151Z,26.51
2018-06-16T19:41:07.363Z,26.48
2018-06-16T19:46:54.230Z,26.39
2018-06-16T19:49:23.620Z,26.34
2018-06-16T19:51:52.746Z,26.25
2018-06-16T19:54:22.001Z,26.28
2018-06-16T19:56:51.165Z,26.24
2018-06-16T19:59:20.874Z,26.21
2018-06-16T20:01:50.105Z,26.12
2018-06-16T20:04:19.532Z,26.15
2018-06-16T20:06:48.775Z,26.23
2018-06-16T20:09:17.902Z,26.21
2018-06-16T20:11:47.155Z,26.22
2018-06-16T20:14:16.309Z,26.07
2018-06-16T20:16:45.443Z,26.00
2018-06-16T20:19:15.062Z,25.74
2018-06-16T20:21:44.261Z,25.71
2018-06-16T20:24:13.418Z,25.66
2018-06-16T20:26:42.619Z,25.70
2018-06-16T20:29:11.762Z,25.74
2018-06-16T20:31:40.858Z,25.58
2018-06-16T20:34:10.390Z,25.55
2018-06-16T20:36:40.152Z,25.64
2018-06-16T20:39:09.686Z,25.58
2018-06-16T20:41:38.903Z,25.65
2018-06-16T20:44:08.094Z,25.78
2018-06-16T20:46:38.027Z,25.79
2018-06-16T20:49:07.188Z,25.75
2018-06-16T20:51:36.366Z,25.80
2018-06-16T20:54:05.810Z,25.89
2018-06-16T20:56:34.963Z,25.88
2018-06-16T20:59:04.105Z,25.85
2018-06-16T21:01:33.358Z,25.56
2018-06-16T21:04:02.449Z,25.32
2018-06-16T21:06:31.645Z,25.12
2018-06-16T21:09:00.811Z,25.05
2018-06-16T21:11:30.004Z,24.90
2018-06-16T21:13:59.109Z,24.90
2018-06-16T21:16:28.257Z,24.64
2018-06-16T21:18:57.355Z,24.53
2018-06-16T21:21:26.737Z,24.55
2018-06-16T21:23:55.881Z,24.56
2018-06-16T21:26:25.082Z,24.43
2018-06-16T21:28:54.376Z,24.24
2018-06-16T21:31:23.516Z,24.33
2018-06-16T21:33:52.656Z,24.46
2018-06-16T21:36:22.012Z,24.42
2018-06-16T21:38:51.165Z,24.43
2018-06-16T21:41:20.386Z,24.40
2018-06-16T21:43:49.547Z,24.40
2018-06-16T21:46:18.690Z,24.41
2018-06-16T21:48:47.840Z,24.40
2018-06-16T21:51:17.788Z,24.38
2018-06-16T21:53:46.936Z,24.42
2018-06-16T21:56:16.065Z,24.46
2018-06-16T21:58:45.217Z,24.43
2018-06-16T22:01:14.339Z,24.39
2018-06-16T22:03:43.509Z,24.36
2018-06-16T22:06:12.741Z,24.31
2018-06-16T22:08:42.023Z,24.22
2018-06-16T22:11:11.181Z,24.20
2018-06-16T22:13:40.388Z,23.94
2018-06-16T22:16:09.539Z,23.82
2018-06-16T22:18:38.725Z,23.80
2018-06-16T22:21:07.893Z,23.83
2018-06-16T22:23:37.030Z,23.52
2018-06-16T22:26:06.553Z,23.47
2018-06-16T22:28:35.650Z,23.49
2018-06-16T22:31:23.467Z,22.72
2018-06-16T22:33:52.558Z,23.32
2018-06-16T22:36:22.281Z,23.23
2018-06-16T22:38:51.514Z,23.16
2018-06-16T22:41:20.661Z,23.10
2018-06-16T22:43:49.887Z,23.04
2018-06-16T22:46:19.062Z,23.04
2018-06-16T22:48:48.231Z,23.00
2018-06-16T22:51:17.488Z,22.87
2018-06-16T22:53:46.572Z,22.92
2018-06-16T22:56:15.750Z,22.88
2018-06-16T22:58:44.918Z,22.87
2018-06-16T23:01:14.066Z,22.84
2018-06-16T23:03:43.228Z,22.71
2018-06-16T23:06:12.433Z,22.60
2018-06-16T23:08:41.620Z,22.70
2018-06-16T23:11:10.850Z,22.73
2018-06-16T23:13:39.965Z,22.73
2018-06-16T23:16:09.145Z,22.72
2018-06-16T23:18:38.320Z,22.60
2018-06-16T23:21:07.507Z,22.55
2018-06-16T23:23:36.600Z,22.52
2018-06-16T23:26:06.105Z,22.48
2018-06-16T23:28:35.252Z,22.53
2018-06-16T23:31:04.413Z,22.57
2018-06-16T23:33:33.816Z,22.56
2018-06-16T23:36:03.038Z,22.58
2018-06-16T23:38:32.220Z,22.57
2018-06-16T23:41:01.469Z,22.49
2018-06-16T23:43:30.626Z,22.25
2018-06-16T23:45:59.976Z,22.36
2018-06-16T23:48:29.209Z,22.19
2018-06-16T23:50:58.495Z,22.02
2018-06-16T23:53:27.923Z,21.94
2018-06-16T23:55:57.139Z,21.87
2018-06-16T23:58:27.041Z,21.88
